Time;durP1;ratioP1;P1;durP2;ratioP2;P2;SDS_P1;SDS_P2;PMS_P1;PMS_P2;Temp;Humidity;BMP_temperature;BMP_pressure;BME280_temperature;BME280_humidity;BME280_pressure;Samples;Min_cycle;Max_cycle;Signal;HPM_P1;HPM_P2
2021/04/11 00:02:14;;;;;;;7.22;4.10;;;9.50;99.90;;;;;;5036769;28;20040;-46
2021/04/11 00:04:40;;;;;;;7.00;3.83;;;9.40;99.90;;;;;;5056054;28;20036;-49
2021/04/11 00:07:06;;;;;;;10.38;5.13;;;9.40;99.90;;;;;;5037360;28;20523;-48
2021/04/11 00:09:31;;;;;;;9.65;4.72;;;9.60;99.90;;;;;;5056178;28;20358;-46
2021/04/11 00:11:57;;;;;;;6.22;4.20;;;9.80;99.90;;;;;;5055689;28;20064;-46
2021/04/11 00:14:23;;;;;;;6.07;4.00;;;9.90;99.90;;;;;;5037425;28;20060;-48
2021/04/11 00:16:49;;;;;;;7.78;4.07;;;9.90;99.90;;;;;;5053719;28;20040;-47
2021/04/11 00:19:15;;;;;;;7.45;4.50;;;;;;;;;;5055624;28;20021;-50
2021/04/11 00:21:41;;;;;;;8.10;4.47;;;9.50;99.90;;;;;;5055615;28;20036;-46
2021/04/11 00:24:07;;;;;;;8.68;4.75;;;9.90;99.90;;;;;;5054420;28;20041;-46
2021/04/11 00:26:33;;;;;;;9.98;5.20;;;;;;;;;;4987399;28;20045;-48
2021/04/11 00:28:59;;;;;;;9.77;5.03;;;;;;;;;;5055266;28;20041;-44
2021/04/11 00:31:25;;;;;;;6.60;4.25;;;;;;;;;;5037022;28;20033;-48
2021/04/11 00:33:51;;;;;;;9.75;4.55;;;;;;;;;;5055317;28;20052;-51
2021/04/11 00:36:19;;;;;;;8.70;5.13;;;10.10;99.90;;;;;;5055193;28;20033;-46
2021/04/11 00:38:45;;;;;;;8.20;4.68;;;10.10;99.90;;;;;;5055515;28;20053;-50
2021/04/11 00:41:13;;;;;;;10.60;5.53;;;10.10;99.90;;;;;;5036951;28;20032;-48
2021/04/11 00:43:39;;;;;;;11.27;5.55;;;10.20;99.90;;;;;;5053977;28;20457;-46
2021/04/11 00:46:24;;;;;;;10.18;5.22;;;10.20;99.90;;;;;;5055295;28;20079;-50
2021/04/11 00:48:50;;;;;;;12.18;5.75;;;10.30;99.90;;;;;;5054854;28;20037;-50
2021/04/11 00:51:19;;;;;;;9.85;6.60;;;10.10;99.90;;;;;;5055052;28;20036;-49
2021/04/11 00:53:45;;;;;;;12.07;6.15;;;9.90;99.90;;;;;;5054992;28;20480;-46
2021/04/11 00:56:13;;;;;;;11.20;6.03;;;9.80;99.90;;;;;;5053248;28;20167;-46
2021/04/11 00:58:40;;;;;;;13.48;6.60;;;9.90;99.90;;;;;;5036555;28;20037;-45
2021/04/11 01:01:06;;;;;;;13.68;6.85;;;10.10;99.90;;;;;;5054768;28;20522;-46
2021/04/11 01:03:35;;;;;;;12.52;6.25;;;10.10;99.90;;;;;;5054794;28;20472;-49
2021/04/11 01:06:02;;;;;;;12.70;7.00;;;10.10;99.90;;;;;;5036372;28;20045;-49
2021/04/11 01:08:32;;;;;;;10.77;6.25;;;10.30;99.90;;;;;;5054533;28;20049;-49
2021/04/11 01:10:57;;;;;;;13.02;6.70;;;10.40;99.90;;;;;;5036062;28;20033;-46
2021/04/11 01:13:24;;;;;;;11.38;7.20;;;10.30;99.90;;;;;;5053796;28;20159;-50
2021/04/11 01:15:50;;;;;;;13.27;7.32;;;10.30;99.90;;;;;;5054155;28;20468;-48
2021/04/11 01:18:16;;;;;;;10.25;5.88;;;10.40;99.90;;;;;;5054433;28;20036;-46
2021/04/11 01:20:42;;;;;;;10.77;6.00;;;10.10;99.90;;;;;;5054594;28;20029;-51
2021/04/11 01:23:11;;;;;;;9.82;5.05;;;;;;;;;;4970963;28;20033;-46
2021/04/11 01:25:40;;;;;;;9.82;5.68;;;9.80;99.90;;;;;;5035783;28;20045;-47
2021/04/11 01:28:15;;;;;;;10.02;5.30;;;9.60;99.90;;;;;;5054121;28;20041;-50
2021/04/11 01:30:43;;;;;;;10.75;5.53;;;9.70;99.90;;;;;;5054203;28;20032;-45
2021/04/11 01:33:14;;;;;;;12.65;5.90;;;9.90;99.90;;;;;;5054252;28;20020;-47
2021/04/11 01:35:40;;;;;;;13.75;4.95;;;10.00;99.90;;;;;;5054049;28;20029;-51
2021/04/11 01:38:08;;;;;;;10.10;5.60;;;10.10;99.90;;;;;;5053976;28;20120;-49
2021/04/11 01:41:07;;;;;;;11.98;6.13;;;10.10;99.90;;;;;;5054125;28;20025;-48
2021/04/11 01:43:37;;;;;;;9.63;4.90;;;10.30;99.90;;;;;;5054136;28;20078;-45
2021/04/11 01:46:07;;;;;;;8.98;5.43;;;10.20;99.90;;;;;;5053937;28;20094;-51
2021/04/11 01:48:34;;;;;;;8.98;5.68;;;10.20;99.90;;;;;;5053776;28;20069;-46
2021/04/11 01:51:00;;;;;;;7.70;4.35;;;10.20;99.90;;;;;;5053766;28;20423;-45
2021/04/11 01:53:27;;;;;;;9.70;5.40;;;10.30;99.90;;;;;;5054059;28;20035;-50
2021/04/11 01:55:53;;;;;;;12.55;6.18;;;10.20;99.90;;;;;;5053743;28;20057;-47
2021/04/11 01:58:20;;;;;;;7.78;5.05;;;10.10;99.90;;;;;;5052117;28;20087;-48
2021/04/11 02:00:59;;;;;;;10.38;5.15;;;10.30;99.90;;;;;;5053656;28;20082;-47
2021/04/11 02:03:25;;;;;;;7.68;4.93;;;10.30;99.90;;;;;;5034111;28;20036;-48
2021/04/11 02:05:52;;;;;;;8.95;4.82;;;10.30;99.90;;;;;;5052050;28;20033;-48
2021/04/11 02:08:24;;;;;;;8.10;4.45;;;10.20;99.90;;;;;;5053694;28;20384;-51
2021/04/11 02:10:53;;;;;;;8.27;4.70;;;10.30;99.90;;;;;;5053711;28;20552;-46
2021/04/11 02:13:23;;;;;;;10.00;5.38;;;10.30;99.90;;;;;;5053468;28;20527;-47
2021/04/11 02:15:53;;;;;;;9.32;5.43;;;10.40;99.90;;;;;;5053039;28;20163;-47
2021/04/11 02:18:19;;;;;;;10.60;5.25;;;10.20;99.90;;;;;;5031585;28;20116;-51
2021/04/11 02:20:45;;;;;;;7.95;4.85;;;10.00;99.90;;;;;;5031524;28;20068;-45
2021/04/11 02:23:13;;;;;;;11.05;4.88;;;9.50;99.90;;;;;;5015215;28;20040;-47
2021/04/11 02:25:49;;;;;;;7.53;4.72;;;9.50;99.90;;;;;;5030746;28;20061;-44
2021/04/11 02:28:17;;;;;;;8.00;4.38;;;9.80;99.90;;;;;;5014645;28;20048;-45
2021/04/11 02:30:52;;;;;;;9.20;4.50;;;9.90;99.90;;;;;;5031193;28;20021;-49
2021/04/11 02:33:19;;;;;;;9.30;4.55;;;10.00;99.90;;;;;;4980398;28;20033;-45
2021/04/11 02:35:45;;;;;;;8.88;4.70;;;10.10;99.90;;;;;;5031327;28;20022;-50
2021/04/11 02:38:12;;;;;;;7.47;4.28;;;10.30;99.90;;;;;;4981973;28;20045;-46
2021/04/11 02:40:41;;;;;;;9.35;4.53;;;10.30;99.90;;;;;;5031154;28;20079;-47
2021/04/11 02:43:09;;;;;;;6.75;3.65;;;10.20;99.90;;;;;;5031102;28;20064;-44
2021/04/11 02:45:38;;;;;;;6.38;4.30;;;9.80;99.90;;;;;;5028614;28;20117;-49
2021/04/11 02:48:06;;;;;;;7.13;4.10;;;9.60;99.90;;;;;;5031209;28;20420;-47
2021/04/11 02:50:35;;;;;;;6.40;3.47;;;9.70;99.90;;;;;;5053323;28;20111;-45
2021/04/11 02:53:26;;;;;;;6.97;3.30;;;9.20;99.90;;;;;;5052899;28;20029;-49
2021/04/11 02:55:54;;;;;;;6.03;3.00;;;8.50;99.90;;;;;;5052769;28;20041;-48
2021/04/11 02:58:22;;;;;;;6.07;3.45;;;7.80;99.90;;;;;;5052964;28;20384;-50
2021/04/11 03:00:57;;;;;;;5.15;3.38;;;7.80;99.90;;;;;;5052950;28;20079;-50
2021/04/11 03:03:23;;;;;;;7.80;3.47;;;8.10;99.90;;;;;;5035063;28;20029;-51
2021/04/11 03:05:48;;;;;;;6.50;3.45;;;7.90;99.90;;;;;;5034571;28;20483;-47
2021/04/11 03:08:18;;;;;;;6.45;3.67;;;8.10;99.90;;;;;;5053526;28;20025;-47
2021/04/11 03:11:04;;;;;;;5.40;3.22;;;8.30;99.90;;;;;;5053005;28;20068;-49
2021/04/11 03:13:33;;;;;;;5.50;3.10;;;7.80;99.90;;;;;;5052903;28;20029;-47
2021/04/11 03:15:59;;;;;;;5.82;3.35;;;7.40;99.90;;;;;;5034579;28;20392;-44
2021/04/11 03:18:26;;;;;;;3.80;2.97;;;;;;;;;;5001516;28;20052;-49
2021/04/11 03:20:52;;;;;;;4.85;2.72;;;7.50;99.90;;;;;;5052743;28;20124;-49
2021/04/11 03:23:20;;;;;;;7.10;3.30;;;7.20;99.90;;;;;;5052889;28;20036;-51
2021/04/11 03:25:45;;;;;;;4.20;2.75;;;7.10;99.90;;;;;;5051343;28;20041;-48
2021/04/11 03:28:23;;;;;;;4.93;3.30;;;7.10;99.90;;;;;;5052781;28;20534;-48
2021/04/11 03:31:13;;;;;;;6.00;3.33;;;7.30;99.90;;;;;;5052787;28;20021;-49
2021/04/11 03:33:40;;;;;;;7.03;3.35;;;;;;;;;;5052833;28;20067;-47
2021/04/11 03:36:09;;;;;;;5.03;2.78;;;7.50;99.90;;;;;;5052596;28;20040;-47
2021/04/11 03:38:36;;;;;;;5.05;3.03;;;7.50;99.90;;;;;;5055689;28;20052;-50
2021/04/11 03:41:02;;;;;;;7.55;3.35;;;7.40;99.90;;;;;;5056506;28;20031;-49
2021/04/11 03:43:40;;;;;;;22.83;9.75;;;7.40;99.90;;;;;;5054869;28;20546;-51
2021/04/11 03:46:18;;;;;;;8.50;5.60;;;7.50;99.90;;;;;;5037685;28;20036;-52
2021/04/11 03:48:55;;;;;;;6.75;4.15;;;7.40;99.90;;;;;;5054332;28;20501;-48
2021/04/11 03:51:26;;;;;;;8.90;4.25;;;7.20;99.90;;;;;;5055993;28;20094;-47
2021/04/11 03:54:16;;;;;;;5.10;2.97;;;7.00;99.90;;;;;;5054320;28;20428;-47
2021/04/11 03:56:45;;;;;;;5.32;2.63;;;7.00;99.90;;;;;;5055606;28;20029;-50
2021/04/11 03:59:23;;;;;;;5.22;2.95;;;7.20;99.90;;;;;;5055918;28;20029;-47
2021/04/11 04:01:52;;;;;;;7.32;4.00;;;7.40;99.90;;;;;;5054410;28;20131;-49
2021/04/11 04:04:21;;;;;;;6.45;3.10;;;7.30;99.90;;;;;;5056043;28;20032;-46
2021/04/11 04:07:12;;;;;;;4.25;2.28;;;;;;;;;;5055773;28;20056;-48
2021/04/11 04:09:39;;;;;;;5.90;2.92;;;7.40;99.90;;;;;;5033919;28;20045;-49
2021/04/11 04:12:13;;;;;;;6.57;4.55;;;7.70;99.90;;;;;;5033711;28;20037;-48
2021/04/11 04:15:06;;;;;;;10.32;4.72;;;;;;;;;;5000965;28;20505;-49
2021/04/11 04:17:45;;;;;;;4.45;2.30;;;;;;;;;;4939441;29;20035;-46
2021/04/11 04:20:23;;;;;;;4.32;2.85;;;6.70;99.90;;;;;;4955402;28;20031;-45
2021/04/11 04:23:13;;;;;;;9.02;3.10;;;6.70;99.90;;;;;;4955253;29;20039;-45
2021/04/11 04:26:14;;;;;;;4.30;3.25;;;6.70;99.90;;;;;;4939135;29;20081;-47
2021/04/11 04:28:52;;;;;;;6.40;2.97;;;6.80;99.90;;;;;;4955213;29;20129;-46
2021/04/11 04:31:43;;;;;;;9.38;6.28;;;7.10;99.90;;;;;;4955195;29;20038;-48
2021/04/11 04:34:27;;;;;;;7.47;3.90;;;7.00;99.90;;;;;;4879569;29;20425;-47
2021/04/11 04:37:14;;;;;;;10.07;3.47;;;;;;;;;;4879428;29;20482;-47
2021/04/11 04:40:00;;;;;;;8.45;4.22;;;;;;;;;;4864212;29;20040;-50
2021/04/11 04:42:43;;;;;;;4.82;3.05;;;6.40;99.90;;;;;;4879354;29;20510;-51
2021/04/11 04:45:33;;;;;;;8.82;4.15;;;6.50;99.90;;;;;;4879119;29;20531;-46
2021/04/11 04:48:18;;;;;;;7.15;4.43;;;6.50;99.90;;;;;;4897795;29;20492;-50
2021/04/11 04:51:14;;;;;;;7.03;4.13;;;6.60;99.90;;;;;;4898000;29;20088;-49
2021/04/11 04:54:11;;;;;;;8.27;4.38;;;6.90;99.90;;;;;;4915252;28;20037;-48
2021/04/11 04:56:42;;;;;;;9.00;4.60;;;7.30;99.90;;;;;;4974159;28;20366;-45
2021/04/11 04:59:14;;;;;;;7.45;4.53;;;7.70;99.90;;;;;;4974122;28;20035;-48
2021/04/11 05:01:52;;;;;;;;;;;7.80;99.90;;;;;;4974497;28;20031;-50
2021/04/11 05:04:24;;;;;;;10.35;5.05;;;7.90;99.90;;;;;;4941728;28;19957;-48
2021/04/11 05:06:59;;;;;;;11.65;4.78;;;8.10;99.90;;;;;;4974059;28;20105;-45
2021/04/11 05:09:50;;;;;;;11.25;4.78;;;8.40;99.90;;;;;;4973644;28;20039;-51
2021/04/11 05:12:21;;;;;;;8.95;5.07;;;8.20;99.90;;;;;;4971600;28;20034;-47
2021/04/11 05:15:00;;;;;;;7.63;4.80;;;8.20;99.90;;;;;;4973869;28;20462;-48
2021/04/11 05:17:28;;;;;;;7.28;4.53;;;8.50;99.90;;;;;;4973530;28;20042;-49
2021/04/11 05:20:02;;;;;;;12.02;5.53;;;8.20;99.90;;;;;;4973977;28;20043;-47
2021/04/11 05:22:38;;;;;;;13.73;5.60;;;8.20;99.90;;;;;;4925590;28;20553;-49
2021/04/11 05:25:10;;;;;;;8.57;4.70;;;8.50;99.90;;;;;;4973550;28;20038;-48
2021/04/11 05:28:02;;;;;;;9.85;4.07;;;8.90;99.90;;;;;;4922069;29;20138;-48
2021/04/11 05:30:31;;;;;;;8.13;4.28;;;;;;;;;;4954123;29;20051;-47
2021/04/11 05:32:57;;;;;;;7.07;4.32;;;;;;;;;;4954309;29;20035;-48
2021/04/11 05:35:24;;;;;;;9.35;5.30;;;9.20;99.90;;;;;;4953928;29;20414;-49
2021/04/11 05:37:52;;;;;;;12.32;5.82;;;9.20;99.90;;;;;;4954066;29;20460;-45
2021/04/11 05:40:28;;;;;;;10.20;4.68;;;9.10;99.90;;;;;;4953958;29;20023;-49
2021/04/11 05:42:56;;;;;;;11.20;5.35;;;9.30;99.90;;;;;;4937953;29;20037;-50
2021/04/11 05:45:33;;;;;;;11.90;5.70;;;9.40;99.90;;;;;;4954077;29;20431;-50
2021/04/11 05:48:25;;;;;;;9.63;4.45;;;9.40;99.90;;;;;;4937446;29;20122;-48
2021/04/11 05:50:57;;;;;;;7.82;4.07;;;9.20;99.90;;;;;;5014138;28;20030;-49
2021/04/11 05:53:33;;;;;;;7.93;4.57;;;9.50;99.90;;;;;;5013634;28;20033;-51
2021/04/11 05:56:03;;;;;;;6.20;3.92;;;9.60;99.90;;;;;;4992879;28;20053;-49
2021/04/11 05:58:45;;;;;;;6.00;3.80;;;10.00;99.90;;;;;;4994786;28;20108;-51
2021/04/11 06:01:18;;;;;;;7.47;3.65;;;10.20;99.90;;;;;;4992574;28;20120;-52
2021/04/11 06:04:00;;;;;;;7.22;3.90;;;10.40;99.90;;;;;;4994365;28;20038;-50
2021/04/11 06:06:50;;;;;;;4.72;3.03;;;10.70;99.90;;;;;;4994146;28;20038;-52
2021/04/11 06:09:39;;;;;;;8.43;4.40;;;10.80;99.90;;;;;;4993324;28;20047;-51
2021/04/11 06:12:05;;;;;;;3.75;2.42;;;;;;;;;;4994422;28;20386;-47
2021/04/11 06:14:42;;;;;;;5.47;3.15;;;11.50;99.90;;;;;;5007935;28;20093;-48
2021/04/11 06:17:10;;;;;;;6.60;3.08;;;11.60;99.90;;;;;;4991904;28;20041;-53
2021/04/11 06:19:36;;;;;;;4.88;2.92;;;11.90;99.90;;;;;;4991802;28;20101;-48
2021/04/11 06:22:11;;;;;;;5.95;3.33;;;12.20;99.90;;;;;;4995288;28;20057;-51
2021/04/11 06:24:58;;;;;;;8.98;3.47;;;12.40;99.90;;;;;;4971922;28;20046;-48
2021/04/11 06:27:55;;;;;;;6.13;3.85;;;12.60;99.90;;;;;;4998147;28;20053;-52
2021/04/11 06:30:26;;;;;;;5.88;3.25;;;12.80;99.90;;;;;;5006677;28;20077;-48
2021/04/11 06:33:09;;;;;;;5.88;3.50;;;13.10;99.90;;;;;;5008010;28;20038;-50
2021/04/11 06:35:54;;;;;;;8.38;3.42;;;;;;;;;;5011472;28;20394;-48
2021/04/11 06:38:27;;;;;;;7.20;4.20;;;;;;;;;;5011317;28;20065;-51
2021/04/11 06:41:12;;;;;;;11.93;5.85;;;;;;;;;;5011512;28;20037;-49
2021/04/11 06:43:38;;;;;;;8.93;5.03;;;;;;;;;;5011139;28;20038;-52
2021/04/11 06:46:07;;;;;;;5.13;3.45;;;;;;;;;;5011538;28;20045;-54
2021/04/11 06:48:59;;;;;;;8.30;3.60;;;;;;;;;;5025781;28;20087;-50
2021/04/11 06:51:35;;;;;;;6.53;3.67;;;14.40;99.90;;;;;;5033533;28;20099;-51
2021/04/11 06:54:13;;;;;;;7.15;4.03;;;14.50;99.90;;;;;;5032259;28;20056;-54
2021/04/11 06:56:44;;;;;;;7.10;4.38;;;14.40;99.90;;;;;;5033093;28;20475;-52
2021/04/11 06:59:18;;;;;;;7.25;4.20;;;14.50;99.90;;;;;;5033491;28;20066;-52
2021/04/11 07:02:22;;;;;;;8.25;4.63;;;14.50;99.90;;;;;;5033241;28;20037;-53
2021/04/11 07:05:03;;;;;;;9.98;5.15;;;14.80;99.90;;;;;;5033098;28;20032;-52
2021/04/11 07:07:38;;;;;;;7.95;4.95;;;;;;;;;;5032729;28;20108;-53
2021/04/11 07:10:22;;;;;;;8.88;4.38;;;15.30;99.90;;;;;;5032109;28;20116;-51
2021/04/11 07:13:16;;;;;;;6.28;4.07;;;15.60;99.90;;;;;;5032813;28;20079;-53
2021/04/11 07:15:58;;;;;;;6.65;3.33;;;15.90;99.90;;;;;;5036790;28;20026;-50
2021/04/11 07:18:24;;;;;;;;;;;;;;;;;;5037416;28;20087;-57
2021/04/11 07:21:08;;;;;;;7.10;3.58;;;16.30;99.90;;;;;;5036789;28;19905;-51
2021/04/11 07:23:53;;;;;;;5.60;3.83;;;;;;;;;;5029484;28;20076;-48
2021/04/11 07:26:34;;;;;;;4.63;3.45;;;16.90;99.90;;;;;;5037246;28;20053;-51
2021/04/11 07:29:06;;;;;;;6.43;3.47;;;;;;;;;;5042898;28;20479;-50
2021/04/11 07:32:07;;;;;;;7.03;3.10;;;17.20;99.90;;;;;;5043654;28;20017;-51
2021/04/11 07:34:51;;;;;;;7.28;4.10;;;;;;;;;;5005067;28;20108;-50
2021/04/11 07:37:41;;;;;;;7.38;3.88;;;18.10;99.90;;;;;;5021158;28;20026;-49
2021/04/11 07:40:16;;;;;;;7.45;3.60;;;;;;;;;;5023397;28;20519;-48
2021/04/11 07:42:51;;;;;;;6.97;3.20;;;;;;;;;;5023285;28;20106;-46
2021/04/11 07:45:43;;;;;;;6.32;3.05;;;18.50;99.10;;;;;;5021124;28;20077;-48
2021/04/11 07:48:09;;;;;;;;;;;;;;;;;;5024174;28;20026;-47
2021/04/11 07:51:00;;;;;;;6.20;3.30;;;18.80;99.90;;;;;;5011691;28;19916;-48
2021/04/11 07:53:57;;;;;;;4.53;2.72;;;18.80;96.10;;;;;;5023119;28;20124;-48
2021/04/11 07:56:23;;;;;;;7.22;3.60;;;;;;;;;;4941210;29;20115;-47
2021/04/11 07:59:08;;;;;;;5.82;3.15;;;;;;;;;;4941780;29;20106;-47
2021/04/11 08:02:18;;;;;;;7.78;3.25;;;19.50;99.90;;;;;;4922440;29;20071;-46
2021/04/11 08:04:52;;;;;;;5.97;3.00;;;19.50;99.90;;;;;;4940528;29;20032;-48
2021/04/11 08:07:25;;;;;;;4.35;2.47;;;;;;;;;;4941335;29;20499;-49
2021/04/11 08:10:10;;;;;;;4.63;2.40;;;;;;;;;;4943605;29;20049;-50
2021/04/11 08:12:54;;;;;;;4.50;2.42;;;;;;;;;;4973933;28;20073;-50
2021/04/11 08:15:26;;;;;;;4.13;2.15;;;;;;;;;;4973527;28;20027;-50
2021/04/11 08:18:00;;;;;;;5.57;2.65;;;;;;;;;;4941790;28;20031;-51
2021/04/11 08:20:32;;;;;;;3.00;2.03;;;;;;;;;;4971196;28;20046;-48
2021/04/11 08:23:17;;;;;;;3.40;1.60;;;;;;;;;;4972315;28;20382;-51
2021/04/11 08:25:43;;;;;;;4.85;1.83;;;;;;;;;;4973312;28;20482;-48
2021/04/11 08:28:17;;;;;;;2.05;1.30;;;;;;;;;;4972999;28;20510;-50
2021/04/11 08:30:46;;;;;;;3.40;1.63;;;;;;;;;;4971966;28;20110;-51
2021/04/11 08:33:13;;;;;;;2.63;1.70;;;;;;;;;;4992663;28;20054;-46
2021/04/11 08:35:58;;;;;;;3.40;1.70;;;;;;;;;;5013982;28;20021;-50
2021/04/11 08:38:36;;;;;;;3.20;1.70;;;;;;;;;;5014281;28;20025;-53
2021/04/11 08:41:17;;;;;;;1.80;1.33;;;;;;;;;;5013874;28;20033;-53
2021/04/11 08:44:02;;;;;;;3.30;2.00;;;;;;;;;;5014029;28;20017;-49
2021/04/11 08:46:39;;;;;;;2.28;1.80;;;;;;;;;;5013138;28;20026;-53
2021/04/11 08:49:09;;;;;;;3.22;1.95;;;;;;;;;;5013661;28;20037;-51
2021/04/11 08:51:50;;;;;;;3.47;1.52;;;;;;;;;;5013678;28;20033;-49
2021/04/11 08:54:19;;;;;;;2.17;1.77;;;;;;;;;;5011912;28;20036;-48
2021/04/11 08:57:09;;;;;;;2.17;1.23;;;;;;;;;;5012760;28;20030;-49
2021/04/11 08:59:54;;;;;;;2.88;1.70;;;;;;;;;;5013163;28;20026;-48
2021/04/11 09:02:30;;;;;;;5.05;2.65;;;21.60;72.20;;;;;;5024475;28;20107;-49
2021/04/11 09:04:58;;;;;;;3.38;1.52;;;21.70;73.30;;;;;;5012596;28;20026;-49
2021/04/11 09:08:08;;;;;;;2.92;1.38;;;22.00;69.40;;;;;;5011665;28;20028;-47
2021/04/11 09:10:49;;;;;;;4.15;2.38;;;22.40;67.40;;;;;;5012920;28;20418;-50
2021/04/11 09:13:30;;;;;;;5.22;2.70;;;22.40;67.80;;;;;;5011259;28;20030;-52
2021/04/11 09:16:24;;;;;;;4.63;2.55;;;22.60;66.00;;;;;;5030798;28;20049;-51
2021/04/11 09:19:22;;;;;;;3.13;1.75;;;22.70;64.60;;;;;;5031713;28;20026;-49
2021/04/11 09:22:06;;;;;;;4.43;1.50;;;22.60;62.50;;;;;;4996136;28;20092;-55
2021/04/11 09:25:13;;;;;;;1.63;1.33;;;22.60;61.80;;;;;;4992533;28;20118;-49
2021/04/11 09:27:47;;;;;;;2.28;1.25;;;23.20;61.30;;;;;;4932069;29;20398;-52
2021/04/11 09:30:13;;;;;;;3.15;1.40;;;23.70;60.60;;;;;;4933356;29;20035;-53
2021/04/11 09:32:57;;;;;;;3.83;1.67;;;;;;;;;;4933882;29;20377;-51
2021/04/11 09:35:44;;;;;;;5.03;2.33;;;23.00;94.20;;;;;;4931209;29;20024;-50
2021/04/11 09:38:46;;;;;;;2.28;1.55;;;22.50;58.40;;;;;;4932207;29;20032;-55
2021/04/11 09:41:13;;;;;;;1.27;1.17;;;22.70;59.00;;;;;;4932946;29;20606;-52
2021/04/11 09:44:15;;;;;;;2.83;1.40;;;22.30;59.70;;;;;;4922520;29;20119;-56
2021/04/11 09:46:47;;;;;;;2.78;1.60;;;22.40;59.30;;;;;;4933322;29;20122;-53
2021/04/11 09:49:31;;;;;;;2.20;1.58;;;21.90;60.00;;;;;;4932134;29;20047;-54
2021/04/11 09:52:15;;;;;;;2.90;1.35;;;21.20;59.90;;;;;;4938363;28;20089;-51
2021/04/11 09:54:44;;;;;;;6.72;3.70;;;21.00;62.10;;;;;;4955323;28;20030;-51
2021/04/11 09:57:35;;;;;;;11.18;6.43;;;20.80;61.70;;;;;;4971303;28;20126;-52
2021/04/11 10:00:35;;;;;;;2.55;1.60;;;20.70;62.00;;;;;;4969334;28;20375;-50
2021/04/11 10:03:39;;;;;;;3.10;1.70;;;20.90;62.30;;;;;;5029934;28;20033;-50
2021/04/11 10:06:39;;;;;;;2.30;1.30;;;21.00;61.80;;;;;;5032196;28;20025;-47
2021/04/11 10:09:29;;;;;;;2.35;1.50;;;21.20;63.10;;;;;;5031857;28;20073;-47
2021/04/11 10:12:16;;;;;;;2.95;1.42;;;21.10;64.20;;;;;;5031812;28;20086;-49
2021/04/11 10:14:47;;;;;;;3.22;2.20;;;21.10;63.10;;;;;;5011910;28;20037;-48
2021/04/11 10:17:28;;;;;;;2.35;1.23;;;21.20;63.80;;;;;;5030961;28;20027;-49
2021/04/11 10:20:23;;;;;;;4.32;2.10;;;20.80;63.20;;;;;;5030143;28;20033;-51
2021/04/11 10:23:27;;;;;;;3.45;1.88;;;20.80;63.90;;;;;;5031445;28;20076;-48
2021/04/11 10:26:08;;;;;;;3.45;2.45;;;20.90;62.80;;;;;;4961289;28;20039;-48
2021/04/11 10:28:49;;;;;;;2.97;1.67;;;21.00;62.90;;;;;;4958387;28;20509;-48
2021/04/11 10:31:33;;;;;;;2.10;1.15;;;21.50;63.50;;;;;;4959687;28;20026;-48
2021/04/11 10:34:14;;;;;;;1.85;1.45;;;21.30;62.60;;;;;;4961507;28;20114;-47
2021/04/11 10:36:44;;;;;;;5.45;2.15;;;21.10;62.60;;;;;;4935660;28;20071;-46
2021/04/11 10:39:15;;;;;;;3.42;1.92;;;21.30;62.90;;;;;;4959300;28;20410;-48
2021/04/11 10:41:52;;;;;;;2.70;1.60;;;21.40;62.60;;;;;;4961653;28;20049;-48
2021/04/11 10:44:41;;;;;;;3.40;1.58;;;21.20;62.90;;;;;;4961343;28;20038;-50
2021/04/11 10:47:35;;;;;;;6.88;2.80;;;21.30;62.00;;;;;;4964242;28;20039;-49
2021/04/11 10:50:14;;;;;;;3.17;1.88;;;21.10;62.80;;;;;;4963754;28;20039;-47
2021/04/11 10:53:16;;;;;;;1.75;1.30;;;20.90;62.10;;;;;;4965042;28;20030;-51
2021/04/11 10:55:54;;;;;;;;;;;20.90;61.00;;;;;;4966700;28;20035;-48
2021/04/11 10:58:40;;;;;;;4.05;1.92;;;20.90;60.40;;;;;;4929823;28;19998;-44
2021/04/11 11:01:31;;;;;;;3.47;1.85;;;21.00;60.80;;;;;;4964270;28;20054;-50
2021/04/11 11:04:24;;;;;;;3.20;1.92;;;21.20;61.40;;;;;;5026632;28;20033;-50
2021/04/11 11:07:14;;;;;;;15.80;6.95;;;21.40;62.10;;;;;;5035454;28;20378;-45
2021/04/11 11:10:16;;;;;;;7.97;4.25;;;21.60;61.50;;;;;;5034760;28;20711;-49
2021/04/11 11:12:48;;;;;;;2.83;1.60;;;21.40;61.60;;;;;;4997590;28;20034;-47
2021/04/11 11:15:32;;;;;;;2.95;1.90;;;21.60;61.30;;;;;;4996183;28;20058;-48
2021/04/11 11:18:19;;;;;;;3.30;1.55;;;21.80;59.00;;;;;;4996811;28;20025;-51
2021/04/11 11:20:49;;;;;;;4.03;1.52;;;22.20;60.20;;;;;;4999045;28;20029;-48
2021/04/11 11:23:36;;;;;;;2.08;1.35;;;22.50;60.40;;;;;;4993452;28;20553;-46
2021/04/11 11:26:08;;;;;;;3.00;1.67;;;22.30;59.30;;;;;;4991543;28;20648;-51
2021/04/11 11:29:11;;;;;;;2.08;1.23;;;22.00;59.70;;;;;;4981399;28;20061;-48
2021/04/11 11:31:51;;;;;;;1.88;1.17;;;22.10;59.10;;;;;;4977502;28;20529;-51
2021/04/11 11:34:27;;;;;;;4.30;2.28;;;22.00;58.70;;;;;;4980199;28;20494;-45
2021/04/11 11:37:02;;;;;;;6.03;2.33;;;22.20;58.90;;;;;;4981346;28;20052;-50
2021/04/11 11:39:46;;;;;;;3.03;1.95;;;22.10;59.40;;;;;;4975341;28;20035;-51
2021/04/11 11:42:14;;;;;;;3.05;2.13;;;22.10;60.00;;;;;;4976417;28;20039;-48
2021/04/11 11:44:55;;;;;;;2.35;1.52;;;22.10;59.40;;;;;;4966700;28;20086;-46
2021/04/11 11:47:27;;;;;;;2.40;1.63;;;22.20;59.50;;;;;;4978302;28;20451;-48
2021/04/11 11:50:05;;;;;;;3.90;2.60;;;22.30;59.20;;;;;;5006890;28;20497;-52
2021/04/11 11:52:55;;;;;;;4.55;2.10;;;21.70;59.10;;;;;;5013300;28;20084;-50
2021/04/11 11:55:28;;;;;;;2.08;1.42;;;22.10;58.90;;;;;;5012201;28;20022;-50
2021/04/11 11:58:08;;;;;;;5.00;2.17;;;22.20;58.40;;;;;;5010655;28;20116;-49
2021/04/11 12:00:39;;;;;;;3.90;2.03;;;22.20;59.60;;;;;;5013972;28;20377;-52
2021/04/11 12:03:31;;;;;;;8.25;2.25;;;22.40;59.70;;;;;;5012142;28;20045;-51
2021/04/11 12:06:26;;;;;;;3.42;1.98;;;22.40;62.30;;;;;;5013480;28;20033;-50
2021/04/11 12:09:07;;;;;;;4.10;2.10;;;22.20;67.40;;;;;;5012262;28;20465;-48
2021/04/11 12:11:51;;;;;;;3.90;2.38;;;22.00;71.30;;;;;;5011783;28;20022;-46
2021/04/11 12:14:38;;;;;;;4.18;2.22;;;21.60;69.90;;;;;;5012991;28;20033;-52
2021/04/11 12:17:31;;;;;;;3.58;2.53;;;21.40;69.50;;;;;;5011624;28;20030;-46
2021/04/11 12:20:27;;;;;;;6.93;3.35;;;21.20;71.40;;;;;;4994249;28;20180;-46
2021/04/11 12:23:22;;;;;;;9.98;3.70;;;21.20;90.10;;;;;;5009866;28;20136;-48
2021/04/11 12:25:49;;;;;;;4.25;2.75;;;21.10;93.60;;;;;;5020277;28;20052;-52
2021/04/11 12:28:23;;;;;;;5.85;3.13;;;21.30;94.30;;;;;;4991136;28;20047;-48
2021/04/11 12:30:50;;;;;;;4.82;2.92;;;21.00;94.60;;;;;;5052668;28;20031;-49
2021/04/11 12:33:28;;;;;;;4.80;2.28;;;21.00;94.10;;;;;;5033614;28;20582;-51
2021/04/11 12:36:02;;;;;;;4.15;2.75;;;21.00;95.70;;;;;;5034451;28;20033;-51
2021/04/11 12:38:45;;;;;;;5.00;3.10;;;20.90;95.50;;;;;;5052253;28;20037;-49
2021/04/11 12:41:21;;;;;;;12.82;2.95;;;20.60;94.00;;;;;;5029190;28;20039;-50
2021/04/11 12:44:16;;;;;;;6.82;2.85;;;20.50;73.40;;;;;;5052244;28;20399;-46
2021/04/11 12:47:18;;;;;;;4.93;2.58;;;20.20;74.60;;;;;;5051549;28;20167;-47
2021/04/11 12:50:03;;;;;;;3.42;2.00;;;20.00;74.80;;;;;;5051755;28;20484;-51
2021/04/11 12:52:38;;;;;;;3.90;2.15;;;19.70;74.50;;;;;;5033669;28;20031;-51
2021/04/11 12:55:22;;;;;;;4.10;2.60;;;19.70;86.40;;;;;;5033607;28;20424;-49
2021/04/11 12:58:17;;;;;;;9.90;3.35;;;19.60;74.80;;;;;;5033794;28;20028;-50
2021/04/11 13:01:16;;;;;;;9.80;4.75;;;19.50;94.30;;;;;;5041711;28;20041;-48
2021/04/11 13:03:45;;;;;;;11.63;6.85;;;19.50;75.20;;;;;;5023617;28;20115;-51
2021/04/11 13:06:40;;;;;;;5.28;2.97;;;19.40;75.40;;;;;;5050729;28;20071;-48
2021/04/11 13:09:17;;;;;;;5.53;3.15;;;19.50;75.10;;;;;;5048944;28;20127;-52
2021/04/11 13:12:15;;;;;;;8.98;4.63;;;19.60;76.40;;;;;;5017947;28;20045;-51
2021/04/11 13:15:04;;;;;;;11.15;5.60;;;19.40;77.10;;;;;;4971805;28;20038;-55
2021/04/11 13:17:49;;;;;;;14.77;5.30;;;19.20;76.20;;;;;;4933101;29;20036;-50
2021/04/11 13:20:23;;;;;;;4.55;2.60;;;19.10;75.70;;;;;;4933643;29;20031;-49
2021/04/11 13:22:58;;;;;;;9.98;4.15;;;19.00;75.60;;;;;;4917290;29;20488;-51
2021/04/11 13:25:36;;;;;;;4.20;2.17;;;19.10;95.30;;;;;;4933345;29;20040;-49
2021/04/11 13:28:08;;;;;;;6.97;3.70;;;19.10;98.90;;;;;;4933452;29;20071;-52
2021/04/11 13:30:43;;;;;;;5.28;2.40;;;19.00;94.10;;;;;;4933235;29;20039;-52
2021/04/11 13:33:32;;;;;;;7.53;3.38;;;18.90;95.30;;;;;;4917451;29;20503;-51
2021/04/11 13:36:00;;;;;;;6.10;3.13;;;18.80;78.70;;;;;;4917252;29;20123;-48
2021/04/11 13:38:30;;;;;;;4.68;2.60;;;18.60;78.70;;;;;;4916750;29;20040;-47
2021/04/11 13:41:40;;;;;;;4.20;2.47;;;18.60;78.80;;;;;;4916690;29;20043;-50
2021/04/11 13:44:29;;;;;;;8.20;3.20;;;;;;;;;;4932246;29;20044;-51
2021/04/11 13:47:15;;;;;;;7.93;2.80;;;18.60;99.90;;;;;;4932895;29;20071;-48
2021/04/11 13:49:41;;;;;;;7.03;2.50;;;;;;;;;;4970609;28;20051;-49
2021/04/11 13:52:10;;;;;;;5.15;2.60;;;;;;;;;;5032334;28;20388;-44
2021/04/11 13:54:36;;;;;;;8.13;4.75;;;;;;;;;;5052232;28;20033;-47
2021/04/11 13:57:54;;;;;;;5.22;2.95;;;18.00;99.90;;;;;;5052503;28;20542;-49
2021/04/11 14:00:57;;;;;;;6.53;3.70;;;17.90;84.00;;;;;;4971099;28;20041;-47
2021/04/11 14:03:41;;;;;;;4.18;2.60;;;;;;;;;;4968302;28;20039;-45
2021/04/11 14:06:43;;;;;;;3.22;2.35;;;;;;;;;;4970367;28;20038;-49